sensor_id;sensor_type;location;lat;lon;timestamp;temperature;humidity
4755;DHT22;2391;47.212;7.542;2022-09-02T00:00:41;20.40;87.50
4755;DHT22;2391;47.212;7.542;2022-09-02T00:03:07;20.40;87.80
4755;DHT22;2391;47.212;7.542;2022-09-02T00:05:34;20.40;87.80
4755;DHT22;2391;47.212;7.542;2022-09-02T00:08:00;20.40;87.90
4755;DHT22;2391;47.212;7.542;2022-09-02T00:10:26;20.30;87.60
4755;DHT22;2391;47.212;7.542;2022-09-02T00:12:52;20.40;87.70
4755;DHT22;2391;47.212;7.542;2022-09-02T00:15:18;20.30;87.60
4755;DHT22;2391;47.212;7.542;2022-09-02T00:17:44;20.30;87.70
4755;DHT22;2391;47.212;7.542;2022-09-02T00:20:10;20.30;87.50
4755;DHT22;2391;47.212;7.542;2022-09-02T00:22:36;20.30;87.40
4755;DHT22;2391;47.212;7.542;2022-09-02T00:25:02;20.20;87.50
4755;DHT22;2391;47.212;7.542;2022-09-02T00:27:28;20.20;87.50
4755;DHT22;2391;47.212;7.542;2022-09-02T00:29:54;20.10;87.60
4755;DHT22;2391;47.212;7.542;2022-09-02T00:32:20;20.10;87.60
4755;DHT22;2391;47.212;7.542;2022-09-02T00:34:46;20.10;87.80
4755;DHT22;2391;47.212;7.542;2022-09-02T00:37:11;20.00;87.70
4755;DHT22;2391;47.212;7.542;2022-09-02T00:39:38;20.00;87.70
4755;DHT22;2391;47.212;7.542;2022-09-02T00:42:04;20.00;87.70
4755;DHT22;2391;47.212;7.542;2022-09-02T00:44:31;20.00;87.70
4755;DHT22;2391;47.212;7.542;2022-09-02T00:46:59;20.00;87.70
4755;DHT22;2391;47.212;7.542;2022-09-02T00:49:27;20.00;87.70
4755;DHT22;2391;47.212;7.542;2022-09-02T00:52:04;20.00;87.80
4755;DHT22;2391;47.212;7.542;2022-09-02T00:54:32;19.90;87.70
4755;DHT22;2391;47.212;7.542;2022-09-02T00:57:00;19.90;87.60
4755;DHT22;2391;47.212;7.542;2022-09-02T01:02:03;19.90;87.80
4755;DHT22;2391;47.212;7.542;2022-09-02T01:04:30;19.90;87.60
4755;DHT22;2391;47.212;7.542;2022-09-02T01:06:56;19.80;87.50
4755;DHT22;2391;47.212;7.542;2022-09-02T01:09:22;19.80;87.30
4755;DHT22;2391;47.212;7.542;2022-09-02T01:11:49;19.80;87.50
4755;DHT22;2391;47.212;7.542;2022-09-02T01:14:17;19.80;87.70
4755;DHT22;2391;47.212;7.542;2022-09-02T01:16:48;19.70;87.80
4755;DHT22;2391;47.212;7.542;2022-09-02T01:19:36;19.70;87.90
4755;DHT22;2391;47.212;7.542;2022-09-02T01:21:57;19.70;88.10
4755;DHT22;2391;47.212;7.542;2022-09-02T01:24:29;19.60;88.20
4755;DHT22;2391;47.212;7.542;2022-09-02T01:26:57;19.60;88.60
4755;DHT22;2391;47.212;7.542;2022-09-02T01:29:24;19.50;88.80
4755;DHT22;2391;47.212;7.542;2022-09-02T01:31:50;19.50;89.20
4755;DHT22;2391;47.212;7.542;2022-09-02T01:34:18;19.50;89.10
4755;DHT22;2391;47.212;7.542;2022-09-02T01:36:44;19.50;89.00
4755;DHT22;2391;47.212;7.542;2022-09-02T01:39:12;19.50;89.00
4755;DHT22;2391;47.212;7.542;2022-09-02T01:41:38;19.50;88.90
4755;DHT22;2391;47.212;7.542;2022-09-02T01:44:05;19.50;89.00
4755;DHT22;2391;47.212;7.542;2022-09-02T01:46:32;19.40;89.00
4755;DHT22;2391;47.212;7.542;2022-09-02T01:48:57;19.40;89.10
4755;DHT22;2391;47.212;7.542;2022-09-02T01:51:23;19.40;89.30
4755;DHT22;2391;47.212;7.542;2022-09-02T01:53:49;19.30;89.30
4755;DHT22;2391;47.212;7.542;2022-09-02T01:56:15;19.30;89.30
4755;DHT22;2391;47.212;7.542;2022-09-02T01:58:41;19.30;89.80
4755;DHT22;2391;47.212;7.542;2022-09-02T02:01:08;19.30;89.20
4755;DHT22;2391;47.212;7.542;2022-09-02T02:03:35;19.30;89.20
4755;DHT22;2391;47.212;7.542;2022-09-02T02:06:13;19.30;89.20
4755;DHT22;2391;47.212;7.542;2022-09-02T02:08:41;19.30;89.10
4755;DHT22;2391;47.212;7.542;2022-09-02T02:11:08;19.30;88.90
4755;DHT22;2391;47.212;7.542;2022-09-02T02:13:35;19.20;88.80
4755;DHT22;2391;47.212;7.542;2022-09-02T02:16:02;19.20;88.80
4755;DHT22;2391;47.212;7.542;2022-09-02T02:18:28;19.20;89.00
4755;DHT22;2391;47.212;7.542;2022-09-02T02:20:54;19.20;89.30
4755;DHT22;2391;47.212;7.542;2022-09-02T02:23:20;19.10;88.90
4755;DHT22;2391;47.212;7.542;2022-09-02T02:25:48;19.10;89.10
4755;DHT22;2391;47.212;7.542;2022-09-02T02:28:14;19.10;89.10
4755;DHT22;2391;47.212;7.542;2022-09-02T02:30:40;19.00;89.40
4755;DHT22;2391;47.212;7.542;2022-09-02T02:33:06;19.10;89.80
4755;DHT22;2391;47.212;7.542;2022-09-02T02:35:31;19.10;90.00
4755;DHT22;2391;47.212;7.542;2022-09-02T02:37:57;19.10;90.00
4755;DHT22;2391;47.212;7.542;2022-09-02T02:40:24;19.10;90.10
4755;DHT22;2391;47.212;7.542;2022-09-02T02:42:51;19.10;89.90
4755;DHT22;2391;47.212;7.542;2022-09-02T02:45:21;19.10;90.00
4755;DHT22;2391;47.212;7.542;2022-09-02T02:47:47;19.10;90.00
4755;DHT22;2391;47.212;7.542;2022-09-02T02:50:16;19.10;90.00
4755;DHT22;2391;47.212;7.542;2022-09-02T02:52:43;19.10;90.00
4755;DHT22;2391;47.212;7.542;2022-09-02T02:55:10;19.00;90.00
4755;DHT22;2391;47.212;7.542;2022-09-02T02:57:37;19.00;90.10
4755;DHT22;2391;47.212;7.542;2022-09-02T03:00:10;19.00;90.00
4755;DHT22;2391;47.212;7.542;2022-09-02T03:02:37;19.00;90.00
4755;DHT22;2391;47.212;7.542;2022-09-02T03:05:06;18.90;90.00
4755;DHT22;2391;47.212;7.542;2022-09-02T03:07:32;18.90;90.00
4755;DHT22;2391;47.212;7.542;2022-09-02T03:09:58;18.90;90.00
4755;DHT22;2391;47.212;7.542;2022-09-02T03:12:23;18.90;90.10
4755;DHT22;2391;47.212;7.542;2022-09-02T03:14:50;18.80;90.10
4755;DHT22;2391;47.212;7.542;2022-09-02T03:17:17;18.80;90.00
4755;DHT22;2391;47.212;7.542;2022-09-02T03:19:43;18.80;90.10
4755;DHT22;2391;47.212;7.542;2022-09-02T03:22:09;18.80;90.10
4755;DHT22;2391;47.212;7.542;2022-09-02T03:24:38;18.80;90.20
4755;DHT22;2391;47.212;7.542;2022-09-02T03:27:04;18.80;90.20
4755;DHT22;2391;47.212;7.542;2022-09-02T03:29:30;18.70;90.10
4755;DHT22;2391;47.212;7.542;2022-09-02T03:31:55;18.70;90.20
4755;DHT22;2391;47.212;7.542;2022-09-02T03:34:24;18.70;90.20
4755;DHT22;2391;47.212;7.542;2022-09-02T03:36:50;18.70;90.20
4755;DHT22;2391;47.212;7.542;2022-09-02T03:39:16;18.70;90.20
4755;DHT22;2391;47.212;7.542;2022-09-02T03:41:41;18.70;90.10
4755;DHT22;2391;47.212;7.542;2022-09-02T03:44:08;18.70;90.10
4755;DHT22;2391;47.212;7.542;2022-09-02T03:46:34;18.60;90.00
4755;DHT22;2391;47.212;7.542;2022-09-02T03:49:00;18.60;90.10
4755;DHT22;2391;47.212;7.542;2022-09-02T03:51:27;18.60;90.00
4755;DHT22;2391;47.212;7.542;2022-09-02T03:53:53;18.60;90.10
4755;DHT22;2391;47.212;7.542;2022-09-02T03:56:19;18.60;90.10
4755;DHT22;2391;47.212;7.542;2022-09-02T03:58:48;18.50;90.10
4755;DHT22;2391;47.212;7.542;2022-09-02T04:01:21;18.50;90.20
4755;DHT22;2391;47.212;7.542;2022-09-02T04:03:47;18.50;90.30
4755;DHT22;2391;47.212;7.542;2022-09-02T04:06:14;18.50;90.30
4755;DHT22;2391;47.212;7.542;2022-09-02T04:08:41;18.40;90.40
4755;DHT22;2391;47.212;7.542;2022-09-02T04:11:10;18.40;90.50
4755;DHT22;2391;47.212;7.542;2022-09-02T04:13:38;18.40;90.50
4755;DHT22;2391;47.212;7.542;2022-09-02T04:16:14;18.30;90.50
4755;DHT22;2391;47.212;7.542;2022-09-02T04:18:37;18.30;90.30
4755;DHT22;2391;47.212;7.542;2022-09-02T04:21:03;18.30;90.30
4755;DHT22;2391;47.212;7.542;2022-09-02T04:23:30;18.30;90.30
4755;DHT22;2391;47.212;7.542;2022-09-02T04:25:56;18.40;90.20
4755;DHT22;2391;47.212;7.542;2022-09-02T04:28:22;18.40;90.00
4755;DHT22;2391;47.212;7.542;2022-09-02T04:30:49;18.40;90.00
4755;DHT22;2391;47.212;7.542;2022-09-02T04:33:16;18.40;90.00
4755;DHT22;2391;47.212;7.542;2022-09-02T04:35:43;18.30;90.00
4755;DHT22;2391;47.212;7.542;2022-09-02T04:38:10;18.30;90.00
4755;DHT22;2391;47.212;7.542;2022-09-02T04:40:45;18.30;90.00
4755;DHT22;2391;47.212;7.542;2022-09-02T04:43:12;18.20;90.00
4755;DHT22;2391;47.212;7.542;2022-09-02T04:45:39;18.20;90.10
4755;DHT22;2391;47.212;7.542;2022-09-02T04:48:05;18.20;90.20
4755;DHT22;2391;47.212;7.542;2022-09-02T04:50:31;18.20;90.20
4755;DHT22;2391;47.212;7.542;2022-09-02T04:52:57;18.20;90.20
4755;DHT22;2391;47.212;7.542;2022-09-02T04:55:24;18.20;90.20
4755;DHT22;2391;47.212;7.542;2022-09-02T04:57:50;18.10;90.20
4755;DHT22;2391;47.212;7.542;2022-09-02T05:00:16;18.10;90.30
4755;DHT22;2391;47.212;7.542;2022-09-02T05:02:44;18.10;90.40
4755;DHT22;2391;47.212;7.542;2022-09-02T05:05:10;18.10;90.60
4755;DHT22;2391;47.212;7.542;2022-09-02T05:07:37;18.00;90.60
4755;DHT22;2391;47.212;7.542;2022-09-02T05:10:05;18.00;90.70
4755;DHT22;2391;47.212;7.542;2022-09-02T05:12:32;18.00;90.60
4755;DHT22;2391;47.212;7.542;2022-09-02T05:15:00;18.00;90.70
4755;DHT22;2391;47.212;7.542;2022-09-02T05:17:27;18.00;90.80
4755;DHT22;2391;47.212;7.542;2022-09-02T05:19:54;18.00;90.80
4755;DHT22;2391;47.212;7.542;2022-09-02T05:22:20;18.00;90.80
4755;DHT22;2391;47.212;7.542;2022-09-02T05:24:46;18.00;90.90
4755;DHT22;2391;47.212;7.542;2022-09-02T05:27:12;18.10;90.90
4755;DHT22;2391;47.212;7.542;2022-09-02T05:29:41;18.10;90.90
4755;DHT22;2391;47.212;7.542;2022-09-02T05:32:07;18.10;90.80
4755;DHT22;2391;47.212;7.542;2022-09-02T05:34:34;18.10;90.90
4755;DHT22;2391;47.212;7.542;2022-09-02T05:37:02;18.20;91.00
4755;DHT22;2391;47.212;7.542;2022-09-02T05:39:28;18.20;91.20
4755;DHT22;2391;47.212;7.542;2022-09-02T05:41:55;18.20;91.20
4755;DHT22;2391;47.212;7.542;2022-09-02T05:44:21;18.30;91.20
4755;DHT22;2391;47.212;7.542;2022-09-02T05:46:47;18.40;91.20
4755;DHT22;2391;47.212;7.542;2022-09-02T05:49:13;18.50;91.10
4755;DHT22;2391;47.212;7.542;2022-09-02T05:51:48;18.60;90.80
4755;DHT22;2391;47.212;7.542;2022-09-02T05:54:24;18.60;90.90
4755;DHT22;2391;47.212;7.542;2022-09-02T05:56:53;18.60;91.00
4755;DHT22;2391;47.212;7.542;2022-09-02T05:59:20;18.70;91.00
4755;DHT22;2391;47.212;7.542;2022-09-02T06:01:47;18.80;91.00
4755;DHT22;2391;47.212;7.542;2022-09-02T06:04:14;18.80;91.10
4755;DHT22;2391;47.212;7.542;2022-09-02T06:06:41;18.90;91.00
4755;DHT22;2391;47.212;7.542;2022-09-02T06:09:08;18.90;90.80
4755;DHT22;2391;47.212;7.542;2022-09-02T06:11:37;19.00;90.70
4755;DHT22;2391;47.212;7.542;2022-09-02T06:14:06;19.10;90.70
4755;DHT22;2391;47.212;7.542;2022-09-02T06:16:34;19.20;90.60
4755;DHT22;2391;47.212;7.542;2022-09-02T06:19:01;19.30;90.60
4755;DHT22;2391;47.212;7.542;2022-09-02T06:21:29;19.40;90.50
4755;DHT22;2391;47.212;7.542;2022-09-02T06:23:55;19.60;90.30
4755;DHT22;2391;47.212;7.542;2022-09-02T06:26:21;19.60;90.10
4755;DHT22;2391;47.212;7.542;2022-09-02T06:28:47;19.70;89.80
4755;DHT22;2391;47.212;7.542;2022-09-02T06:31:16;19.70;89.80
4755;DHT22;2391;47.212;7.542;2022-09-02T06:33:43;19.80;90.10
4755;DHT22;2391;47.212;7.542;2022-09-02T06:36:13;19.80;89.90
4755;DHT22;2391;47.212;7.542;2022-09-02T06:38:42;19.90;89.50
4755;DHT22;2391;47.212;7.542;2022-09-02T06:41:14;20.00;89.80
4755;DHT22;2391;47.212;7.542;2022-09-02T06:43:41;20.10;89.50
4755;DHT22;2391;47.212;7.542;2022-09-02T06:46:16;20.20;88.30
4755;DHT22;2391;47.212;7.542;2022-09-02T06:48:43;20.20;88.20
4755;DHT22;2391;47.212;7.542;2022-09-02T06:51:17;20.20;88.40
4755;DHT22;2391;47.212;7.542;2022-09-02T06:53:44;20.20;88.30
4755;DHT22;2391;47.212;7.542;2022-09-02T06:56:10;20.20;88.00
4755;DHT22;2391;47.212;7.542;2022-09-02T06:58:36;20.20;88.50
4755;DHT22;2391;47.212;7.542;2022-09-02T07:01:02;20.30;89.00
4755;DHT22;2391;47.212;7.542;2022-09-02T07:03:28;20.50;88.10
4755;DHT22;2391;47.212;7.542;2022-09-02T07:06:12;20.60;87.90
4755;DHT22;2391;47.212;7.542;2022-09-02T07:08:40;20.70;87.70
4755;DHT22;2391;47.212;7.542;2022-09-02T07:11:16;20.90;87.60
4755;DHT22;2391;47.212;7.542;2022-09-02T07:13:42;21.00;86.90
4755;DHT22;2391;47.212;7.542;2022-09-02T07:16:08;21.10;86.70
4755;DHT22;2391;47.212;7.542;2022-09-02T07:18:34;21.20;86.00
4755;DHT22;2391;47.212;7.542;2022-09-02T07:21:01;21.30;84.90
4755;DHT22;2391;47.212;7.542;2022-09-02T07:23:27;21.30;84.70
4755;DHT22;2391;47.212;7.542;2022-09-02T07:25:53;21.30;84.60
4755;DHT22;2391;47.212;7.542;2022-09-02T07:28:21;21.40;85.20
4755;DHT22;2391;47.212;7.542;2022-09-02T07:30:47;21.40;85.30
4755;DHT22;2391;47.212;7.542;2022-09-02T07:33:14;21.50;84.90
4755;DHT22;2391;47.212;7.542;2022-09-02T07:35:41;21.60;84.50
4755;DHT22;2391;47.212;7.542;2022-09-02T07:38:08;21.70;84.20
4755;DHT22;2391;47.212;7.542;2022-09-02T07:40:35;21.80;84.20
4755;DHT22;2391;47.212;7.542;2022-09-02T07:43:03;21.90;83.90
4755;DHT22;2391;47.212;7.542;2022-09-02T07:45:30;21.90;83.10
4755;DHT22;2391;47.212;7.542;2022-09-02T07:47:56;22.00;83.10
4755;DHT22;2391;47.212;7.542;2022-09-02T07:50:23;22.10;83.80
4755;DHT22;2391;47.212;7.542;2022-09-02T07:52:53;22.10;84.00
4755;DHT22;2391;47.212;7.542;2022-09-02T07:55:21;22.10;83.10
4755;DHT22;2391;47.212;7.542;2022-09-02T07:57:47;22.10;83.30
4755;DHT22;2391;47.212;7.542;2022-09-02T08:00:15;22.10;83.60
4755;DHT22;2391;47.212;7.542;2022-09-02T08:02:42;22.20;83.90
4755;DHT22;2391;47.212;7.542;2022-09-02T08:05:09;22.30;83.60
4755;DHT22;2391;47.212;7.542;2022-09-02T08:07:35;22.40;83.20
4755;DHT22;2391;47.212;7.542;2022-09-02T08:10:02;22.50;82.70
4755;DHT22;2391;47.212;7.542;2022-09-02T08:12:28;22.50;82.30
4755;DHT22;2391;47.212;7.542;2022-09-02T08:14:54;22.60;82.40
4755;DHT22;2391;47.212;7.542;2022-09-02T08:17:22;22.70;81.70
4755;DHT22;2391;47.212;7.542;2022-09-02T08:19:48;22.80;82.00
4755;DHT22;2391;47.212;7.542;2022-09-02T08:22:13;22.80;81.40
4755;DHT22;2391;47.212;7.542;2022-09-02T08:24:39;22.70;81.50
4755;DHT22;2391;47.212;7.542;2022-09-02T08:27:05;22.70;82.90
4755;DHT22;2391;47.212;7.542;2022-09-02T08:29:31;22.70;81.60
4755;DHT22;2391;47.212;7.542;2022-09-02T08:31:58;22.80;82.00
4755;DHT22;2391;47.212;7.542;2022-09-02T08:34:23;22.90;82.00
4755;DHT22;2391;47.212;7.542;2022-09-02T08:36:49;22.90;82.10
4755;DHT22;2391;47.212;7.542;2022-09-02T08:39:15;22.90;81.30
4755;DHT22;2391;47.212;7.542;2022-09-02T08:44:14;22.90;81.60
4755;DHT22;2391;47.212;7.542;2022-09-02T08:46:41;22.90;82.30
4755;DHT22;2391;47.212;7.542;2022-09-02T08:49:23;22.90;81.50
4755;DHT22;2391;47.212;7.542;2022-09-02T08:51:54;22.90;82.50
4755;DHT22;2391;47.212;7.542;2022-09-02T08:54:43;22.80;82.40
4755;DHT22;2391;47.212;7.542;2022-09-02T08:57:09;22.80;81.20
4755;DHT22;2391;47.212;7.542;2022-09-02T08:59:36;22.90;81.90
4755;DHT22;2391;47.212;7.542;2022-09-02T09:18:18;22.40;82.70
4755;DHT22;2391;47.212;7.542;2022-09-02T09:20:42;22.50;83.10
4755;DHT22;2391;47.212;7.542;2022-09-02T09:23:32;22.50;83.60
4755;DHT22;2391;47.212;7.542;2022-09-02T09:28:48;22.80;83.40
4755;DHT22;2391;47.212;7.542;2022-09-02T09:31:17;22.90;83.60
4755;DHT22;2391;47.212;7.542;2022-09-02T09:34:07;23.00;83.40
4755;DHT22;2391;47.212;7.542;2022-09-02T09:36:49;23.20;82.70
4755;DHT22;2391;47.212;7.542;2022-09-02T09:41:50;23.20;83.00
4755;DHT22;2391;47.212;7.542;2022-09-02T09:47:07;23.10;83.00
4755;DHT22;2391;47.212;7.542;2022-09-02T09:49:34;23.10;83.30
4755;DHT22;2391;47.212;7.542;2022-09-02T09:52:01;23.10;83.60
4755;DHT22;2391;47.212;7.542;2022-09-02T09:54:27;23.10;83.70
4755;DHT22;2391;47.212;7.542;2022-09-02T09:56:54;23.20;83.40
4755;DHT22;2391;47.212;7.542;2022-09-02T09:59:41;23.30;83.30
4755;DHT22;2391;47.212;7.542;2022-09-02T10:02:24;23.30;83.20
4755;DHT22;2391;47.212;7.542;2022-09-02T10:04:52;23.30;84.10
4755;DHT22;2391;47.212;7.542;2022-09-02T10:07:40;23.40;84.00
4755;DHT22;2391;47.212;7.542;2022-09-02T10:10:18;23.30;83.70
4755;DHT22;2391;47.212;7.542;2022-09-02T10:12:46;23.30;84.10
4755;DHT22;2391;47.212;7.542;2022-09-02T10:15:13;23.40;83.70
4755;DHT22;2391;47.212;7.542;2022-09-02T10:21:00;23.60;82.70
4755;DHT22;2391;47.212;7.542;2022-09-02T10:39:28;23.30;81.90
4755;DHT22;2391;47.212;7.542;2022-09-02T10:41:57;23.40;81.90
4755;DHT22;2391;47.212;7.542;2022-09-02T10:44:32;23.30;82.50
4755;DHT22;2391;47.212;7.542;2022-09-02T10:55:55;23.40;82.50
4755;DHT22;2391;47.212;7.542;2022-09-02T11:00:31;23.50;82.40
4755;DHT22;2391;47.212;7.542;2022-09-02T11:03:22;23.40;81.60
4755;DHT22;2391;47.212;7.542;2022-09-02T11:05:56;23.40;82.20
4755;DHT22;2391;47.212;7.542;2022-09-02T11:08:45;23.50;82.20
4755;DHT22;2391;47.212;7.542;2022-09-02T11:11:18;23.50;82.20
4755;DHT22;2391;47.212;7.542;2022-09-02T11:14:00;23.60;82.10
4755;DHT22;2391;47.212;7.542;2022-09-02T11:16:35;23.70;81.80
4755;DHT22;2391;47.212;7.542;2022-09-02T11:19:12;23.80;81.10
4755;DHT22;2391;47.212;7.542;2022-09-02T11:21:45;23.80;81.50
4755;DHT22;2391;47.212;7.542;2022-09-02T11:29:36;23.90;81.20
4755;DHT22;2391;47.212;7.542;2022-09-02T11:34:48;24.10;80.40
4755;DHT22;2391;47.212;7.542;2022-09-02T11:37:45;24.10;81.60
4755;DHT22;2391;47.212;7.542;2022-09-02T11:40:27;24.10;81.30
4755;DHT22;2391;47.212;7.542;2022-09-02T11:54:15;24.40;80.50
4755;DHT22;2391;47.212;7.542;2022-09-02T11:56:46;24.50;79.90
4755;DHT22;2391;47.212;7.542;2022-09-02T12:02:05;24.60;79.70
4755;DHT22;2391;47.212;7.542;2022-09-02T12:04:31;24.50;80.10
4755;DHT22;2391;47.212;7.542;2022-09-02T12:09:55;24.50;79.30
4755;DHT22;2391;47.212;7.542;2022-09-02T12:15:16;24.40;79.10
4755;DHT22;2391;47.212;7.542;2022-09-02T12:23:59;24.50;79.90
4755;DHT22;2391;47.212;7.542;2022-09-02T12:25:48;24.50;78.50
4755;DHT22;2391;47.212;7.542;2022-09-02T12:33:43;24.50;80.30
4755;DHT22;2391;47.212;7.542;2022-09-02T12:36:56;24.60;79.20
4755;DHT22;2391;47.212;7.542;2022-09-02T12:38:39;24.70;80.20
4755;DHT22;2391;47.212;7.542;2022-09-02T12:41:13;24.80;78.90
4755;DHT22;2391;47.212;7.542;2022-09-02T12:46:43;24.90;77.80
4755;DHT22;2391;47.212;7.542;2022-09-02T12:51:57;24.90;78.00
4755;DHT22;2391;47.212;7.542;2022-09-02T12:54:45;24.80;78.30
4755;DHT22;2391;47.212;7.542;2022-09-02T12:57:15;24.90;79.40
4755;DHT22;2391;47.212;7.542;2022-09-02T12:59:43;24.90;77.90
4755;DHT22;2391;47.212;7.542;2022-09-02T13:13:50;25.20;78.70
4755;DHT22;2391;47.212;7.542;2022-09-02T13:32:12;25.30;79.60
4755;DHT22;2391;47.212;7.542;2022-09-02T13:34:41;25.50;78.30
4755;DHT22;2391;47.212;7.542;2022-09-02T13:37:33;25.50;77.60
4755;DHT22;2391;47.212;7.542;2022-09-02T13:39:56;25.50;78.70
4755;DHT22;2391;47.212;7.542;2022-09-02T13:42:26;25.50;79.00
4755;DHT22;2391;47.212;7.542;2022-09-02T13:45:08;25.50;79.20
4755;DHT22;2391;47.212;7.542;2022-09-02T13:47:35;25.60;79.50
4755;DHT22;2391;47.212;7.542;2022-09-02T13:50:02;25.60;79.80
4755;DHT22;2391;47.212;7.542;2022-09-02T13:52:29;25.60;78.90
4755;DHT22;2391;47.212;7.542;2022-09-02T13:54:56;25.50;79.20
4755;DHT22;2391;47.212;7.542;2022-09-02T13:57:28;25.50;78.50
4755;DHT22;2391;47.212;7.542;2022-09-02T13:59:55;25.50;79.10
4755;DHT22;2391;47.212;7.542;2022-09-02T14:02:33;25.50;78.30
4755;DHT22;2391;47.212;7.542;2022-09-02T14:07:40;25.30;78.60
4755;DHT22;2391;47.212;7.542;2022-09-02T14:10:09;25.20;79.00
4755;DHT22;2391;47.212;7.542;2022-09-02T14:12:37;25.20;79.10
4755;DHT22;2391;47.212;7.542;2022-09-02T14:15:06;25.10;79.40
4755;DHT22;2391;47.212;7.542;2022-09-02T14:17:32;25.00;79.20
4755;DHT22;2391;47.212;7.542;2022-09-02T14:22:42;24.80;80.60
4755;DHT22;2391;47.212;7.542;2022-09-02T14:25:13;24.80;80.70
4755;DHT22;2391;47.212;7.542;2022-09-02T14:30:33;24.70;80.00
4755;DHT22;2391;47.212;7.542;2022-09-02T14:33:16;24.60;79.80
4755;DHT22;2391;47.212;7.542;2022-09-02T14:36:01;24.50;79.70
4755;DHT22;2391;47.212;7.542;2022-09-02T14:38:28;24.40;80.00
4755;DHT22;2391;47.212;7.542;2022-09-02T14:41:12;24.30;80.40
4755;DHT22;2391;47.212;7.542;2022-09-02T14:43:56;24.20;82.00
4755;DHT22;2391;47.212;7.542;2022-09-02T14:46:28;24.20;83.30
4755;DHT22;2391;47.212;7.542;2022-09-02T14:49:03;24.10;84.40
4755;DHT22;2391;47.212;7.542;2022-09-02T14:51:43;23.90;85.10
4755;DHT22;2391;47.212;7.542;2022-09-02T14:54:10;23.90;85.70
4755;DHT22;2391;47.212;7.542;2022-09-02T14:56:45;23.90;86.50
4755;DHT22;2391;47.212;7.542;2022-09-02T14:59:11;23.90;86.50
4755;DHT22;2391;47.212;7.542;2022-09-02T15:01:46;23.90;87.60
4755;DHT22;2391;47.212;7.542;2022-09-02T15:04:14;24.00;87.70
4755;DHT22;2391;47.212;7.542;2022-09-02T15:06:41;24.10;87.80
4755;DHT22;2391;47.212;7.542;2022-09-02T15:09:07;24.10;87.40
4755;DHT22;2391;47.212;7.542;2022-09-02T15:11:35;24.20;87.50
4755;DHT22;2391;47.212;7.542;2022-09-02T15:14:02;24.30;88.50
4755;DHT22;2391;47.212;7.542;2022-09-02T15:16:28;24.30;88.40
4755;DHT22;2391;47.212;7.542;2022-09-02T15:18:54;24.40;90.00
4755;DHT22;2391;47.212;7.542;2022-09-02T15:21:19;24.40;90.00
4755;DHT22;2391;47.212;7.542;2022-09-02T15:23:46;24.50;89.20
4755;DHT22;2391;47.212;7.542;2022-09-02T15:26:11;24.50;89.40
4755;DHT22;2391;47.212;7.542;2022-09-02T15:28:37;24.50;89.80
4755;DHT22;2391;47.212;7.542;2022-09-02T15:31:03;24.50;90.00
4755;DHT22;2391;47.212;7.542;2022-09-02T15:33:30;24.60;90.30
4755;DHT22;2391;47.212;7.542;2022-09-02T15:38:34;24.50;89.60
4755;DHT22;2391;47.212;7.542;2022-09-02T15:41:16;24.50;89.40
4755;DHT22;2391;47.212;7.542;2022-09-02T15:43:43;24.50;89.70
4755;DHT22;2391;47.212;7.542;2022-09-02T15:46:26;24.50;89.80
4755;DHT22;2391;47.212;7.542;2022-09-02T15:48:54;24.40;89.60
4755;DHT22;2391;47.212;7.542;2022-09-02T15:51:22;24.50;89.60
4755;DHT22;2391;47.212;7.542;2022-09-02T15:53:56;24.50;89.30
4755;DHT22;2391;47.212;7.542;2022-09-02T15:56:25;24.50;89.60
4755;DHT22;2391;47.212;7.542;2022-09-02T15:58:57;24.50;89.50
4755;DHT22;2391;47.212;7.542;2022-09-02T16:01:25;24.40;89.30
4755;DHT22;2391;47.212;7.542;2022-09-02T16:03:51;24.40;89.00
4755;DHT22;2391;47.212;7.542;2022-09-02T16:06:17;24.50;89.10
4755;DHT22;2391;47.212;7.542;2022-09-02T16:08:43;24.50;89.00
4755;DHT22;2391;47.212;7.542;2022-09-02T16:11:09;24.50;88.80
4755;DHT22;2391;47.212;7.542;2022-09-02T16:13:35;24.50;88.60
4755;DHT22;2391;47.212;7.542;2022-09-02T16:16:09;24.50;89.00
4755;DHT22;2391;47.212;7.542;2022-09-02T16:18:32;24.40;88.50
4755;DHT22;2391;47.212;7.542;2022-09-02T16:20:58;24.40;87.90
4755;DHT22;2391;47.212;7.542;2022-09-02T16:23:24;24.40;88.50
4755;DHT22;2391;47.212;7.542;2022-09-02T16:26:14;24.40;88.50
4755;DHT22;2391;47.212;7.542;2022-09-02T16:28:43;24.40;88.50
4755;DHT22;2391;47.212;7.542;2022-09-02T16:31:15;24.40;88.60
4755;DHT22;2391;47.212;7.542;2022-09-02T16:33:42;24.40;88.60
4755;DHT22;2391;47.212;7.542;2022-09-02T16:36:10;24.40;88.50
4755;DHT22;2391;47.212;7.542;2022-09-02T16:38:36;24.40;88.50
4755;DHT22;2391;47.212;7.542;2022-09-02T16:41:03;24.30;88.40
4755;DHT22;2391;47.212;7.542;2022-09-02T16:43:30;24.30;89.10
4755;DHT22;2391;47.212;7.542;2022-09-02T16:45:58;24.30;88.80
4755;DHT22;2391;47.212;7.542;2022-09-02T16:48:30;24.30;88.80
4755;DHT22;2391;47.212;7.542;2022-09-02T16:51:03;24.30;88.80
4755;DHT22;2391;47.212;7.542;2022-09-02T16:53:27;24.20;88.80
4755;DHT22;2391;47.212;7.542;2022-09-02T16:55:53;24.20;88.70
4755;DHT22;2391;47.212;7.542;2022-09-02T16:58:19;24.20;89.10
4755;DHT22;2391;47.212;7.542;2022-09-02T17:00:45;24.20;89.10
4755;DHT22;2391;47.212;7.542;2022-09-02T17:03:11;24.10;89.40
4755;DHT22;2391;47.212;7.542;2022-09-02T17:05:38;24.10;89.30
4755;DHT22;2391;47.212;7.542;2022-09-02T17:08:05;24.10;89.30
4755;DHT22;2391;47.212;7.542;2022-09-02T17:10:33;24.10;89.40
4755;DHT22;2391;47.212;7.542;2022-09-02T17:13:00;24.00;89.30
4755;DHT22;2391;47.212;7.542;2022-09-02T17:15:27;24.00;89.30
4755;DHT22;2391;47.212;7.542;2022-09-02T17:17:54;24.00;89.30
4755;DHT22;2391;47.212;7.542;2022-09-02T17:20:21;24.00;89.70
4755;DHT22;2391;47.212;7.542;2022-09-02T17:22:48;24.00;89.70
4755;DHT22;2391;47.212;7.542;2022-09-02T17:25:14;24.00;89.80
4755;DHT22;2391;47.212;7.542;2022-09-02T17:27:41;24.00;89.90
4755;DHT22;2391;47.212;7.542;2022-09-02T17:30:10;24.00;89.50
4755;DHT22;2391;47.212;7.542;2022-09-02T17:32:38;24.00;89.50
4755;DHT22;2391;47.212;7.542;2022-09-02T17:35:06;24.00;89.10
4755;DHT22;2391;47.212;7.542;2022-09-02T17:37:32;24.00;89.30
4755;DHT22;2391;47.212;7.542;2022-09-02T17:40:03;24.00;89.10
4755;DHT22;2391;47.212;7.542;2022-09-02T17:42:30;24.00;88.80
4755;DHT22;2391;47.212;7.542;2022-09-02T17:44:56;24.00;88.50
4755;DHT22;2391;47.212;7.542;2022-09-02T17:47:23;24.00;88.80
4755;DHT22;2391;47.212;7.542;2022-09-02T17:49:50;24.00;89.10
4755;DHT22;2391;47.212;7.542;2022-09-02T17:52:19;24.00;89.40
4755;DHT22;2391;47.212;7.542;2022-09-02T17:54:48;24.00;89.50
4755;DHT22;2391;47.212;7.542;2022-09-02T18:10:38;23.70;89.70
4755;DHT22;2391;47.212;7.542;2022-09-02T18:13:12;23.70;89.80
4755;DHT22;2391;47.212;7.542;2022-09-02T18:18:50;23.60;89.70
4755;DHT22;2391;47.212;7.542;2022-09-02T18:21:40;23.60;89.60
4755;DHT22;2391;47.212;7.542;2022-09-02T18:25:01;23.50;89.60
4755;DHT22;2391;47.212;7.542;2022-09-02T18:26:47;23.50;89.80
4755;DHT22;2391;47.212;7.542;2022-09-02T18:29:26;23.50;90.00
4755;DHT22;2391;47.212;7.542;2022-09-02T18:34:53;23.40;90.00
4755;DHT22;2391;47.212;7.542;2022-09-02T18:45:29;23.30;89.90
4755;DHT22;2391;47.212;7.542;2022-09-02T18:48:11;23.20;90.20
4755;DHT22;2391;47.212;7.542;2022-09-02T18:50:39;23.20;90.00
4755;DHT22;2391;47.212;7.542;2022-09-02T18:53:08;23.10;89.90
4755;DHT22;2391;47.212;7.542;2022-09-02T18:55:37;23.10;89.90
4755;DHT22;2391;47.212;7.542;2022-09-02T18:58:10;23.10;90.00
4755;DHT22;2391;47.212;7.542;2022-09-02T19:00:45;23.00;90.00
4755;DHT22;2391;47.212;7.542;2022-09-02T19:03:13;23.00;89.80